sensor_id;sensor_type;location;lat;lon;timestamp;pressure;altitude;pressure_sealevel;temperature;humidity
74790;BME280;63318;52.406;13.416;2024-03-29T00:01:03;99497.70;;;8.44;66.28
74790;BME280;63318;52.406;13.416;2024-03-29T00:03:52;99498.12;;;8.46;66.55
74790;BME280;63318;52.406;13.416;2024-03-29T00:06:22;99496.13;;;8.47;66.92
74790;BME280;63318;52.406;13.416;2024-03-29T00:08:52;99504.27;;;8.47;66.80
74790;BME280;63318;52.406;13.416;2024-03-29T00:11:22;99505.33;;;8.45;67.29
74790;BME280;63318;52.406;13.416;2024-03-29T00:13:52;99509.00;;;8.43;67.28
74790;BME280;63318;52.406;13.416;2024-03-29T00:16:22;99514.48;;;8.42;66.97
74790;BME280;63318;52.406;13.416;2024-03-29T00:18:54;99516.50;;;8.39;67.42
74790;BME280;63318;52.406;13.416;2024-03-29T00:21:24;99526.20;;;8.39;67.24
74790;BME280;63318;52.406;13.416;2024-03-29T00:23:54;99532.41;;;8.38;67.47
74790;BME280;63318;52.406;13.416;2024-03-29T00:26:24;99540.15;;;8.37;67.60
74790;BME280;63318;52.406;13.416;2024-03-29T00:28:55;99540.39;;;8.35;67.69
74790;BME280;63318;52.406;13.416;2024-03-29T00:31:25;99545.13;;;8.32;67.75
74790;BME280;63318;52.406;13.416;2024-03-29T00:33:55;99549.35;;;8.29;68.37
74790;BME280;63318;52.406;13.416;2024-03-29T00:36:27;99555.95;;;8.24;68.78
74790;BME280;63318;52.406;13.416;2024-03-29T00:38:58;99557.36;;;8.19;68.73
74790;BME280;63318;52.406;13.416;2024-03-29T00:41:28;99555.20;;;8.13;68.37
74790;BME280;63318;52.406;13.416;2024-03-29T00:43:59;99560.05;;;8.06;69.08
74790;BME280;63318;52.406;13.416;2024-03-29T00:46:33;99559.88;;;8.00;69.47
74790;BME280;63318;52.406;13.416;2024-03-29T00:49:05;99562.30;;;7.93;69.30
74790;BME280;63318;52.406;13.416;2024-03-29T00:51:35;99561.14;;;7.85;69.35
74790;BME280;63318;52.406;13.416;2024-03-29T00:54:06;99562.21;;;7.79;69.82
74790;BME280;63318;52.406;13.416;2024-03-29T00:56:36;99556.39;;;7.72;70.16
74790;BME280;63318;52.406;13.416;2024-03-29T00:59:06;99551.45;;;7.66;70.99
74790;BME280;63318;52.406;13.416;2024-03-29T01:01:37;99548.16;;;7.61;70.87
74790;BME280;63318;52.406;13.416;2024-03-29T01:04:07;99549.73;;;7.55;70.48
74790;BME280;63318;52.406;13.416;2024-03-29T01:06:38;99557.48;;;7.50;70.06
74790;BME280;63318;52.406;13.416;2024-03-29T01:09:09;99558.89;;;7.46;70.69
74790;BME280;63318;52.406;13.416;2024-03-29T01:11:41;99554.60;;;7.42;71.08
74790;BME280;63318;52.406;13.416;2024-03-29T01:14:13;99551.62;;;7.39;71.85
74790;BME280;63318;52.406;13.416;2024-03-29T01:16:44;99547.45;;;7.34;71.60
74790;BME280;63318;52.406;13.416;2024-03-29T01:19:14;99549.67;;;7.30;71.72
74790;BME280;63318;52.406;13.416;2024-03-29T01:21:45;99548.91;;;7.25;72.11
74790;BME280;63318;52.406;13.416;2024-03-29T01:24:15;99550.98;;;7.20;72.31
74790;BME280;63318;52.406;13.416;2024-03-29T01:26:45;99550.99;;;7.15;71.94
74790;BME280;63318;52.406;13.416;2024-03-29T01:29:16;99554.38;;;7.10;72.47
74790;BME280;63318;52.406;13.416;2024-03-29T01:31:46;99556.33;;;7.05;72.37
74790;BME280;63318;52.406;13.416;2024-03-29T01:34:16;99558.34;;;6.99;72.73
74790;BME280;63318;52.406;13.416;2024-03-29T01:36:47;99559.89;;;6.93;72.69
74790;BME280;63318;52.406;13.416;2024-03-29T01:39:17;99557.86;;;6.87;72.38
74790;BME280;63318;52.406;13.416;2024-03-29T01:41:50;99555.84;;;6.83;72.30
74790;BME280;63318;52.406;13.416;2024-03-29T01:44:20;99556.61;;;6.80;72.89
74790;BME280;63318;52.406;13.416;2024-03-29T01:46:50;99561.31;;;6.77;72.74
74790;BME280;63318;52.406;13.416;2024-03-29T01:49:20;99558.00;;;6.72;72.80
74790;BME280;63318;52.406;13.416;2024-03-29T01:51:50;99553.80;;;6.69;72.83
74790;BME280;63318;52.406;13.416;2024-03-29T01:54:21;99554.58;;;6.66;72.99
74790;BME280;63318;52.406;13.416;2024-03-29T01:56:51;99552.32;;;6.62;72.99
74790;BME280;63318;52.406;13.416;2024-03-29T01:59:23;99553.86;;;6.60;72.98
74790;BME280;63318;52.406;13.416;2024-03-29T02:01:53;99562.81;;;6.58;72.60
74790;BME280;63318;52.406;13.416;2024-03-29T02:04:23;99561.88;;;6.55;72.48
74790;BME280;63318;52.406;13.416;2024-03-29T02:06:53;99561.27;;;6.52;72.59
74790;BME280;63318;52.406;13.416;2024-03-29T02:09:24;99561.21;;;6.50;72.74
74790;BME280;63318;52.406;13.416;2024-03-29T02:11:54;99561.71;;;6.48;72.61
74790;BME280;63318;52.406;13.416;2024-03-29T02:14:23;99558.84;;;6.46;72.52
74790;BME280;63318;52.406;13.416;2024-03-29T02:16:54;99563.31;;;6.44;72.45
74790;BME280;63318;52.406;13.416;2024-03-29T02:19:24;99564.10;;;6.42;72.69
74790;BME280;63318;52.406;13.416;2024-03-29T02:21:56;99566.80;;;6.41;72.36
74790;BME280;63318;52.406;13.416;2024-03-29T02:24:28;99569.71;;;6.39;72.21
74790;BME280;63318;52.406;13.416;2024-03-29T02:26:58;99566.35;;;6.36;72.59
74790;BME280;63318;52.406;13.416;2024-03-29T02:29:31;99571.70;;;6.34;72.04
74790;BME280;63318;52.406;13.416;2024-03-29T02:32:01;99581.17;;;6.32;72.06
74790;BME280;63318;52.406;13.416;2024-03-29T02:34:32;99580.48;;;6.31;72.30
74790;BME280;63318;52.406;13.416;2024-03-29T02:37:03;99582.57;;;6.29;72.05
74790;BME280;63318;52.406;13.416;2024-03-29T02:39:33;99583.95;;;6.28;71.91
74790;BME280;63318;52.406;13.416;2024-03-29T02:42:04;99581.08;;;6.27;72.29
74790;BME280;63318;52.406;13.416;2024-03-29T02:44:34;99587.70;;;6.25;72.68
74790;BME280;63318;52.406;13.416;2024-03-29T02:47:05;99590.94;;;6.22;72.60
74790;BME280;63318;52.406;13.416;2024-03-29T02:49:35;99598.38;;;6.19;72.59
74790;BME280;63318;52.406;13.416;2024-03-29T02:52:06;99599.70;;;6.17;72.96
74790;BME280;63318;52.406;13.416;2024-03-29T02:54:36;99599.64;;;6.14;72.48
74790;BME280;63318;52.406;13.416;2024-03-29T02:57:07;99597.10;;;6.10;72.53
74790;BME280;63318;52.406;13.416;2024-03-29T02:59:38;99593.29;;;6.07;72.54
74790;BME280;63318;52.406;13.416;2024-03-29T03:02:08;99591.30;;;6.04;72.50
74790;BME280;63318;52.406;13.416;2024-03-29T03:04:39;99600.17;;;6.00;72.91
74790;BME280;63318;52.406;13.416;2024-03-29T03:07:09;99606.11;;;5.97;72.48
74790;BME280;63318;52.406;13.416;2024-03-29T03:09:58;99618.13;;;5.94;72.37
74790;BME280;63318;52.406;13.416;2024-03-29T03:12:46;99616.02;;;5.90;72.39
74790;BME280;63318;52.406;13.416;2024-03-29T03:15:17;99620.14;;;5.88;72.50
74790;BME280;63318;52.406;13.416;2024-03-29T03:17:48;99621.79;;;5.87;72.38
74790;BME280;63318;52.406;13.416;2024-03-29T03:20:18;99618.98;;;5.85;72.53
74790;BME280;63318;52.406;13.416;2024-03-29T03:22:50;99618.44;;;5.83;72.44
74790;BME280;63318;52.406;13.416;2024-03-29T03:25:20;99617.11;;;5.80;72.47
74790;BME280;63318;52.406;13.416;2024-03-29T03:27:51;99627.02;;;5.78;72.35
74790;BME280;63318;52.406;13.416;2024-03-29T03:30:21;99632.02;;;5.75;72.60
74790;BME280;63318;52.406;13.416;2024-03-29T03:32:51;99630.55;;;5.72;72.78
74790;BME280;63318;52.406;13.416;2024-03-29T03:35:21;99634.55;;;5.71;72.93
74790;BME280;63318;52.406;13.416;2024-03-29T03:37:52;99626.27;;;5.69;72.52
74790;BME280;63318;52.406;13.416;2024-03-29T03:40:22;99636.95;;;5.67;72.72
74790;BME280;63318;52.406;13.416;2024-03-29T03:42:52;99642.02;;;5.63;72.81
74790;BME280;63318;52.406;13.416;2024-03-29T03:45:22;99641.85;;;5.61;72.98
74790;BME280;63318;52.406;13.416;2024-03-29T03:47:53;99635.43;;;5.58;73.22
74790;BME280;63318;52.406;13.416;2024-03-29T03:50:23;99642.30;;;5.55;73.39
74790;BME280;63318;52.406;13.416;2024-03-29T03:52:54;99643.67;;;5.53;73.20
74790;BME280;63318;52.406;13.416;2024-03-29T03:55:24;99637.88;;;5.51;73.29
74790;BME280;63318;52.406;13.416;2024-03-29T03:57:55;99623.88;;;5.48;73.36
74790;BME280;63318;52.406;13.416;2024-03-29T04:00:25;99611.79;;;5.44;73.45
74790;BME280;63318;52.406;13.416;2024-03-29T04:02:56;99603.36;;;5.41;73.53
74790;BME280;63318;52.406;13.416;2024-03-29T04:05:26;99602.51;;;5.38;73.60
74790;BME280;63318;52.406;13.416;2024-03-29T04:07:56;99601.16;;;5.34;73.26
74790;BME280;63318;52.406;13.416;2024-03-29T04:10:26;99603.46;;;5.32;73.54
74790;BME280;63318;52.406;13.416;2024-03-29T04:12:56;99600.94;;;5.28;73.79
74790;BME280;63318;52.406;13.416;2024-03-29T04:15:26;99609.38;;;5.25;73.40
74790;BME280;63318;52.406;13.416;2024-03-29T04:17:57;99617.29;;;5.23;73.58
74790;BME280;63318;52.406;13.416;2024-03-29T04:20:27;99614.70;;;5.21;73.84
74790;BME280;63318;52.406;13.416;2024-03-29T04:22:57;99616.23;;;5.19;73.73
74790;BME280;63318;52.406;13.416;2024-03-29T04:25:27;99615.66;;;5.16;73.83
74790;BME280;63318;52.406;13.416;2024-03-29T04:27:58;99614.98;;;5.13;73.81
74790;BME280;63318;52.406;13.416;2024-03-29T04:30:28;99610.73;;;5.10;74.06
74790;BME280;63318;52.406;13.416;2024-03-29T04:32:58;99607.63;;;5.07;73.92
74790;BME280;63318;52.406;13.416;2024-03-29T04:35:28;99602.98;;;5.04;73.91
74790;BME280;63318;52.406;13.416;2024-03-29T04:37:58;99598.13;;;5.02;73.97
74790;BME280;63318;52.406;13.416;2024-03-29T04:40:28;99600.05;;;5.00;73.93
74790;BME280;63318;52.406;13.416;2024-03-29T04:42:58;99604.99;;;4.98;74.17
74790;BME280;63318;52.406;13.416;2024-03-29T04:45:28;99607.01;;;4.96;74.25
74790;BME280;63318;52.406;13.416;2024-03-29T04:47:58;99608.75;;;4.94;74.39
74790;BME280;63318;52.406;13.416;2024-03-29T04:50:28;99600.23;;;4.94;74.35
74790;BME280;63318;52.406;13.416;2024-03-29T04:52:58;99606.89;;;4.93;74.47
74790;BME280;63318;52.406;13.416;2024-03-29T04:55:29;99605.27;;;4.93;74.48
74790;BME280;63318;52.406;13.416;2024-03-29T04:57:59;99604.79;;;4.92;74.58
74790;BME280;63318;52.406;13.416;2024-03-29T05:00:29;99610.44;;;4.91;74.67
74790;BME280;63318;52.406;13.416;2024-03-29T05:02:59;99611.21;;;4.91;74.54
74790;BME280;63318;52.406;13.416;2024-03-29T05:05:30;99604.99;;;4.90;74.54
74790;BME280;63318;52.406;13.416;2024-03-29T05:08:00;99601.30;;;4.90;74.37
74790;BME280;63318;52.406;13.416;2024-03-29T05:10:30;99613.48;;;4.91;74.54
74790;BME280;63318;52.406;13.416;2024-03-29T05:13:00;99617.44;;;4.91;74.60
74790;BME280;63318;52.406;13.416;2024-03-29T05:15:31;99614.04;;;4.91;74.77
74790;BME280;63318;52.406;13.416;2024-03-29T05:18:01;99617.39;;;4.92;74.63
74790;BME280;63318;52.406;13.416;2024-03-29T05:20:32;99614.20;;;4.93;74.59
74790;BME280;63318;52.406;13.416;2024-03-29T05:23:02;99609.80;;;4.95;74.60
74790;BME280;63318;52.406;13.416;2024-03-29T05:25:36;99612.86;;;4.97;74.72
74790;BME280;63318;52.406;13.416;2024-03-29T05:28:07;99614.95;;;4.99;74.80
74790;BME280;63318;52.406;13.416;2024-03-29T05:30:38;99621.41;;;5.01;74.74
74790;BME280;63318;52.406;13.416;2024-03-29T05:33:08;99629.19;;;5.04;74.86
74790;BME280;63318;52.406;13.416;2024-03-29T05:35:38;99627.05;;;5.06;75.05
74790;BME280;63318;52.406;13.416;2024-03-29T05:38:08;99625.59;;;5.08;74.94
74790;BME280;63318;52.406;13.416;2024-03-29T05:40:38;99626.42;;;5.11;74.87
74790;BME280;63318;52.406;13.416;2024-03-29T05:43:09;99618.80;;;5.14;75.00
74790;BME280;63318;52.406;13.416;2024-03-29T05:45:39;99608.35;;;5.17;75.04
74790;BME280;63318;52.406;13.416;2024-03-29T05:48:09;99611.27;;;5.21;74.97
74790;BME280;63318;52.406;13.416;2024-03-29T05:50:39;99613.29;;;5.24;75.23
74790;BME280;63318;52.406;13.416;2024-03-29T05:53:09;99614.69;;;5.28;75.16
74790;BME280;63318;52.406;13.416;2024-03-29T05:55:39;99622.85;;;5.32;75.05
74790;BME280;63318;52.406;13.416;2024-03-29T05:58:09;99627.89;;;5.37;75.05
74790;BME280;63318;52.406;13.416;2024-03-29T06:00:40;99635.24;;;5.42;75.10
74790;BME280;63318;52.406;13.416;2024-03-29T06:03:10;99641.32;;;5.46;74.94
74790;BME280;63318;52.406;13.416;2024-03-29T06:05:41;99645.15;;;5.51;74.84
74790;BME280;63318;52.406;13.416;2024-03-29T06:08:12;99650.30;;;5.56;74.84
74790;BME280;63318;52.406;13.416;2024-03-29T06:10:42;99646.08;;;5.62;75.11
74790;BME280;63318;52.406;13.416;2024-03-29T06:13:12;99643.08;;;5.68;74.73
74790;BME280;63318;52.406;13.416;2024-03-29T06:15:58;99654.84;;;5.75;74.67
74790;BME280;63318;52.406;13.416;2024-03-29T06:18:55;99657.73;;;5.82;74.66
74790;BME280;63318;52.406;13.416;2024-03-29T06:21:26;99661.05;;;5.90;74.81
74790;BME280;63318;52.406;13.416;2024-03-29T06:23:56;99657.54;;;5.97;74.82
74790;BME280;63318;52.406;13.416;2024-03-29T06:26:26;99663.52;;;6.05;74.65
74790;BME280;63318;52.406;13.416;2024-03-29T06:28:56;99661.27;;;6.12;74.84
74790;BME280;63318;52.406;13.416;2024-03-29T06:31:27;99672.11;;;6.19;74.45
74790;BME280;63318;52.406;13.416;2024-03-29T06:33:58;99679.53;;;6.28;74.41
74790;BME280;63318;52.406;13.416;2024-03-29T06:36:29;99675.89;;;6.36;74.13
74790;BME280;63318;52.406;13.416;2024-03-29T06:39:00;99678.67;;;6.44;74.16
74790;BME280;63318;52.406;13.416;2024-03-29T06:41:31;99674.60;;;6.53;74.13
74790;BME280;63318;52.406;13.416;2024-03-29T06:44:01;99669.04;;;6.60;73.95
74790;BME280;63318;52.406;13.416;2024-03-29T06:46:32;99672.53;;;6.68;74.12
74790;BME280;63318;52.406;13.416;2024-03-29T06:49:03;99674.90;;;6.76;73.84
74790;BME280;63318;52.406;13.416;2024-03-29T06:51:35;99674.63;;;6.84;73.80
74790;BME280;63318;52.406;13.416;2024-03-29T06:54:06;99684.95;;;6.92;73.47
74790;BME280;63318;52.406;13.416;2024-03-29T06:56:38;99692.11;;;7.02;73.44
74790;BME280;63318;52.406;13.416;2024-03-29T06:59:10;99694.59;;;7.12;73.42
74790;BME280;63318;52.406;13.416;2024-03-29T07:01:42;99699.83;;;7.23;73.10
74790;BME280;63318;52.406;13.416;2024-03-29T07:04:13;99707.11;;;7.34;72.89
74790;BME280;63318;52.406;13.416;2024-03-29T07:06:47;99706.38;;;7.46;72.79
74790;BME280;63318;52.406;13.416;2024-03-29T07:09:21;99699.45;;;7.58;72.89
74790;BME280;63318;52.406;13.416;2024-03-29T07:11:52;99696.42;;;7.67;73.00
74790;BME280;63318;52.406;13.416;2024-03-29T07:14:22;99699.67;;;7.76;72.15
74790;BME280;63318;52.406;13.416;2024-03-29T07:16:55;99695.11;;;7.81;72.40
74790;BME280;63318;52.406;13.416;2024-03-29T07:19:26;99710.23;;;7.88;71.88
74790;BME280;63318;52.406;13.416;2024-03-29T07:21:56;99718.41;;;7.94;71.58
74790;BME280;63318;52.406;13.416;2024-03-29T07:24:27;99726.46;;;7.99;71.41
74790;BME280;63318;52.406;13.416;2024-03-29T07:26:58;99738.61;;;8.04;70.91
74790;BME280;63318;52.406;13.416;2024-03-29T07:29:29;99744.52;;;8.09;71.07
74790;BME280;63318;52.406;13.416;2024-03-29T07:32:03;99741.18;;;8.14;70.99
74790;BME280;63318;52.406;13.416;2024-03-29T07:34:34;99737.84;;;8.19;71.18
74790;BME280;63318;52.406;13.416;2024-03-29T07:37:04;99734.73;;;8.26;70.70
74790;BME280;63318;52.406;13.416;2024-03-29T07:39:35;99735.32;;;8.31;69.93
74790;BME280;63318;52.406;13.416;2024-03-29T07:42:05;99740.03;;;8.39;70.20
74790;BME280;63318;52.406;13.416;2024-03-29T07:44:36;99743.55;;;8.46;70.00
74790;BME280;63318;52.406;13.416;2024-03-29T07:47:06;99748.48;;;8.54;69.86
74790;BME280;63318;52.406;13.416;2024-03-29T07:49:36;99748.50;;;8.61;69.34
74790;BME280;63318;52.406;13.416;2024-03-29T07:52:07;99741.27;;;8.68;69.26
74790;BME280;63318;52.406;13.416;2024-03-29T07:54:38;99745.86;;;8.74;68.58
74790;BME280;63318;52.406;13.416;2024-03-29T07:57:08;99744.67;;;8.81;68.34
74790;BME280;63318;52.406;13.416;2024-03-29T07:59:40;99746.88;;;8.87;68.53
74790;BME280;63318;52.406;13.416;2024-03-29T08:02:12;99757.38;;;8.92;68.01
74790;BME280;63318;52.406;13.416;2024-03-29T08:04:43;99769.25;;;8.98;67.74
74790;BME280;63318;52.406;13.416;2024-03-29T08:07:13;99765.45;;;9.02;67.75
74790;BME280;63318;52.406;13.416;2024-03-29T08:09:44;99771.68;;;9.06;68.07
74790;BME280;63318;52.406;13.416;2024-03-29T08:12:14;99771.67;;;9.09;67.99
74790;BME280;63318;52.406;13.416;2024-03-29T08:14:45;99765.31;;;9.13;68.29
74790;BME280;63318;52.406;13.416;2024-03-29T08:17:15;99767.18;;;9.16;68.37
74790;BME280;63318;52.406;13.416;2024-03-29T08:19:45;99759.23;;;9.19;68.05
74790;BME280;63318;52.406;13.416;2024-03-29T08:22:17;99750.34;;;9.22;68.25
74790;BME280;63318;52.406;13.416;2024-03-29T08:24:47;99743.06;;;9.24;68.49
74790;BME280;63318;52.406;13.416;2024-03-29T08:27:17;99736.52;;;9.27;68.55
74790;BME280;63318;52.406;13.416;2024-03-29T08:29:47;99728.06;;;9.29;68.47
74790;BME280;63318;52.406;13.416;2024-03-29T08:32:20;99719.33;;;9.32;68.71
74790;BME280;63318;52.406;13.416;2024-03-29T08:34:50;99705.26;;;9.37;68.82
74790;BME280;63318;52.406;13.416;2024-03-29T08:37:21;99706.76;;;9.42;68.47
74790;BME280;63318;52.406;13.416;2024-03-29T08:39:51;99719.27;;;9.49;68.71
74790;BME280;63318;52.406;13.416;2024-03-29T08:42:22;99716.83;;;9.55;69.07
74790;BME280;63318;52.406;13.416;2024-03-29T08:44:52;99702.21;;;9.63;68.81
74790;BME280;63318;52.406;13.416;2024-03-29T08:47:23;99700.59;;;9.70;68.57
74790;BME280;63318;52.406;13.416;2024-03-29T08:49:53;99718.17;;;9.80;68.50
74790;BME280;63318;52.406;13.416;2024-03-29T08:52:25;99735.16;;;9.89;68.47
74790;BME280;63318;52.406;13.416;2024-03-29T08:54:58;99744.83;;;9.97;68.20
74790;BME280;63318;52.406;13.416;2024-03-29T08:57:30;99759.94;;;10.05;68.08
74790;BME280;63318;52.406;13.416;2024-03-29T09:00:01;99759.23;;;10.13;67.62
74790;BME280;63318;52.406;13.416;2024-03-29T09:02:32;99756.33;;;10.20;67.53
74790;BME280;63318;52.406;13.416;2024-03-29T09:05:03;99749.61;;;10.28;67.39
74790;BME280;63318;52.406;13.416;2024-03-29T09:07:33;99744.69;;;10.34;67.07
74790;BME280;63318;52.406;13.416;2024-03-29T09:10:04;99753.97;;;10.43;67.21
74790;BME280;63318;52.406;13.416;2024-03-29T09:12:35;99753.89;;;10.53;66.69
74790;BME280;63318;52.406;13.416;2024-03-29T09:15:06;99754.74;;;10.63;66.38
74790;BME280;63318;52.406;13.416;2024-03-29T09:17:42;99758.49;;;10.74;66.28
74790;BME280;63318;52.406;13.416;2024-03-29T09:20:13;99755.90;;;10.84;66.34
74790;BME280;63318;52.406;13.416;2024-03-29T09:22:44;99744.70;;;10.92;65.84
74790;BME280;63318;52.406;13.416;2024-03-29T09:25:14;99752.20;;;11.01;65.99
74790;BME280;63318;52.406;13.416;2024-03-29T09:27:46;99751.98;;;11.11;65.83
74790;BME280;63318;52.406;13.416;2024-03-29T09:30:17;99765.67;;;11.20;65.86
74790;BME280;63318;52.406;13.416;2024-03-29T09:32:49;99767.92;;;11.30;65.73
74790;BME280;63318;52.406;13.416;2024-03-29T09:35:20;99778.36;;;11.37;65.52
74790;BME280;63318;52.406;13.416;2024-03-29T09:37:50;99780.39;;;11.45;65.37
74790;BME280;63318;52.406;13.416;2024-03-29T09:40:21;99775.23;;;11.54;64.99
74790;BME280;63318;52.406;13.416;2024-03-29T09:42:52;99762.78;;;11.63;64.65
74790;BME280;63318;52.406;13.416;2024-03-29T09:45:24;99768.85;;;11.71;64.76
74790;BME280;63318;52.406;13.416;2024-03-29T09:47:56;99766.72;;;11.78;64.20
74790;BME280;63318;52.406;13.416;2024-03-29T09:50:27;99764.88;;;11.84;64.00
74790;BME280;63318;52.406;13.416;2024-03-29T09:52:59;99768.60;;;11.91;63.36
74790;BME280;63318;52.406;13.416;2024-03-29T09:55:30;99767.39;;;11.96;63.36
74790;BME280;63318;52.406;13.416;2024-03-29T09:58:05;99768.65;;;12.03;63.03
74790;BME280;63318;52.406;13.416;2024-03-29T10:00:36;99768.54;;;12.08;62.97
74790;BME280;63318;52.406;13.416;2024-03-29T10:03:07;99761.09;;;12.13;62.39
74790;BME280;63318;52.406;13.416;2024-03-29T10:05:38;99759.66;;;12.18;62.38
74790;BME280;63318;52.406;13.416;2024-03-29T10:08:09;99755.45;;;12.22;61.94
74790;BME280;63318;52.406;13.416;2024-03-29T10:10:40;99752.91;;;12.24;62.16
74790;BME280;63318;52.406;13.416;2024-03-29T10:13:12;99754.00;;;12.25;61.63
74790;BME280;63318;52.406;13.416;2024-03-29T10:15:42;99755.48;;;12.26;61.18
74790;BME280;63318;52.406;13.416;2024-03-29T10:18:19;99754.85;;;12.24;61.90
74790;BME280;63318;52.406;13.416;2024-03-29T10:20:59;99749.72;;;12.22;62.22
74790;BME280;63318;52.406;13.416;2024-03-29T10:23:30;99739.39;;;12.18;62.19
74790;BME280;63318;52.406;13.416;2024-03-29T10:26:01;99732.82;;;12.15;63.09
74790;BME280;63318;52.406;13.416;2024-03-29T10:28:34;99723.79;;;12.10;63.33
74790;BME280;63318;52.406;13.416;2024-03-29T10:31:07;99709.77;;;12.09;63.39
74790;BME280;63318;52.406;13.416;2024-03-29T10:33:37;99703.49;;;12.09;63.75
74790;BME280;63318;52.406;13.416;2024-03-29T10:36:08;99705.08;;;12.07;63.81
74790;BME280;63318;52.406;13.416;2024-03-29T10:38:41;99703.33;;;12.06;63.83
74790;BME280;63318;52.406;13.416;2024-03-29T10:41:13;99706.52;;;12.05;64.08
74790;BME280;63318;52.406;13.416;2024-03-29T10:43:44;99706.66;;;12.03;64.11
74790;BME280;63318;52.406;13.416;2024-03-29T10:46:17;99707.29;;;12.03;64.42
74790;BME280;63318;52.406;13.416;2024-03-29T10:48:50;99701.80;;;12.02;64.54
74790;BME280;63318;52.406;13.416;2024-03-29T10:51:23;99698.15;;;12.03;65.19
74790;BME280;63318;52.406;13.416;2024-03-29T10:53:53;99695.77;;;12.06;64.86
74790;BME280;63318;52.406;13.416;2024-03-29T10:56:30;99692.16;;;12.08;65.19
74790;BME280;63318;52.406;13.416;2024-03-29T10:59:09;99685.05;;;12.12;64.98
74790;BME280;63318;52.406;13.416;2024-03-29T11:01:46;99674.91;;;12.22;65.38
74790;BME280;63318;52.406;13.416;2024-03-29T11:04:25;99670.00;;;12.38;65.25
74790;BME280;63318;52.406;13.416;2024-03-29T11:07:04;99659.48;;;12.55;64.95
74790;BME280;63318;52.406;13.416;2024-03-29T11:09:37;99654.09;;;12.71;65.06
74790;BME280;63318;52.406;13.416;2024-03-29T11:12:14;99655.74;;;12.88;65.09
74790;BME280;63318;52.406;13.416;2024-03-29T11:14:52;99650.73;;;13.06;65.07
74790;BME280;63318;52.406;13.416;2024-03-29T11:17:29;99648.73;;;13.21;64.13
74790;BME280;63318;52.406;13.416;2024-03-29T11:20:03;99653.33;;;13.30;64.40
74790;BME280;63318;52.406;13.416;2024-03-29T11:22:34;99644.70;;;13.37;64.19
74790;BME280;63318;52.406;13.416;2024-03-29T11:25:06;99632.33;;;13.43;64.00
74790;BME280;63318;52.406;13.416;2024-03-29T11:27:37;99631.25;;;13.50;63.71
74790;BME280;63318;52.406;13.416;2024-03-29T11:30:10;99627.49;;;13.54;63.85
74790;BME280;63318;52.406;13.416;2024-03-29T11:32:40;99624.45;;;13.57;63.85
74790;BME280;63318;52.406;13.416;2024-03-29T11:35:16;99618.55;;;13.58;63.32
74790;BME280;63318;52.406;13.416;2024-03-29T11:37:47;99627.13;;;13.59;63.36
74790;BME280;63318;52.406;13.416;2024-03-29T11:40:30;99622.83;;;13.59;63.29
74790;BME280;63318;52.406;13.416;2024-03-29T11:43:01;99623.31;;;13.58;63.01
74790;BME280;63318;52.406;13.416;2024-03-29T11:45:32;99628.86;;;13.57;63.11
74790;BME280;63318;52.406;13.416;2024-03-29T11:48:05;99632.82;;;13.55;63.09
74790;BME280;63318;52.406;13.416;2024-03-29T11:50:38;99633.58;;;13.54;63.23
74790;BME280;63318;52.406;13.416;2024-03-29T11:53:09;99640.41;;;13.55;63.23
74790;BME280;63318;52.406;13.416;2024-03-29T11:55:40;99647.00;;;13.57;63.23
74790;BME280;63318;52.406;13.416;2024-03-29T11:58:11;99646.32;;;13.57;63.56
74790;BME280;63318;52.406;13.416;2024-03-29T12:00:41;99654.30;;;13.57;63.44
74790;BME280;63318;52.406;13.416;2024-03-29T12:03:14;99658.27;;;13.55;63.55
74790;BME280;63318;52.406;13.416;2024-03-29T12:05:47;99664.10;;;13.56;63.70
74790;BME280;63318;52.406;13.416;2024-03-29T12:08:18;99666.11;;;13.56;63.80
74790;BME280;63318;52.406;13.416;2024-03-29T12:10:48;99667.48;;;13.57;63.55
74790;BME280;63318;52.406;13.416;2024-03-29T12:13:19;99660.50;;;13.55;63.27
74790;BME280;63318;52.406;13.416;2024-03-29T12:15:49;99652.05;;;13.54;63.16
74790;BME280;63318;52.406;13.416;2024-03-29T12:18:21;99654.68;;;13.54;63.29
74790;BME280;63318;52.406;13.416;2024-03-29T12:20:52;99658.79;;;13.56;63.16
74790;BME280;63318;52.406;13.416;2024-03-29T12:23:23;99656.84;;;13.60;63.21
74790;BME280;63318;52.406;13.416;2024-03-29T12:25:55;99633.10;;;13.67;63.23
74790;BME280;63318;52.406;13.416;2024-03-29T12:28:26;99618.42;;;13.73;62.77
74790;BME280;63318;52.406;13.416;2024-03-29T12:30:59;99603.44;;;13.81;62.53
74790;BME280;63318;52.406;13.416;2024-03-29T12:33:31;99595.22;;;13.89;62.15
74790;BME280;63318;52.406;13.416;2024-03-29T12:36:01;99579.34;;;13.97;61.77
74790;BME280;63318;52.406;13.416;2024-03-29T12:38:33;99570.09;;;14.06;61.62
74790;BME280;63318;52.406;13.416;2024-03-29T12:41:02;99574.29;;;14.15;61.53
74790;BME280;63318;52.406;13.416;2024-03-29T12:43:33;99577.84;;;14.24;61.17
74790;BME280;63318;52.406;13.416;2024-03-29T12:46:03;99582.23;;;14.37;60.87
74790;BME280;63318;52.406;13.416;2024-03-29T12:48:36;99597.10;;;14.49;61.00
74790;BME280;63318;52.406;13.416;2024-03-29T12:51:09;99597.99;;;14.63;60.70
74790;BME280;63318;52.406;13.416;2024-03-29T12:53:44;99591.04;;;14.75;60.88
74790;BME280;63318;52.406;13.416;2024-03-29T12:56:17;99580.09;;;14.87;60.34
74790;BME280;63318;52.406;13.416;2024-03-29T12:58:47;99575.59;;;14.99;60.20
74790;BME280;63318;52.406;13.416;2024-03-29T13:01:17;99578.52;;;15.11;59.85
74790;BME280;63318;52.406;13.416;2024-03-29T13:03:49;99584.54;;;15.27;58.76
74790;BME280;63318;52.406;13.416;2024-03-29T13:06:20;99587.76;;;15.43;58.10
74790;BME280;63318;52.406;13.416;2024-03-29T13:08:53;99582.48;;;15.55;58.49
74790;BME280;63318;52.406;13.416;2024-03-29T13:11:27;99585.95;;;15.63;57.81
74790;BME280;63318;52.406;13.416;2024-03-29T13:13:57;99596.14;;;15.68;57.62
74790;BME280;63318;52.406;13.416;2024-03-29T13:16:27;99594.73;;;15.70;57.17
74790;BME280;63318;52.406;13.416;2024-03-29T13:19:01;99584.14;;;15.72;56.60